createdAt,value
2023-02-26T00:00:37.891Z,38.60
2023-02-26T00:03:06.159Z,38.51
2023-02-26T00:05:34.327Z,38.31
2023-02-26T00:08:05.948Z,38.35
2023-02-26T00:10:34.272Z,38.64
2023-02-26T00:13:03.341Z,38.73
2023-02-26T00:15:32.296Z,38.85
2023-02-26T00:18:02.337Z,38.66
2023-02-26T00:20:31.123Z,38.29
2023-02-26T00:22:59.977Z,38.08
2023-02-26T00:25:29.620Z,38.36
2023-02-26T00:27:58.279Z,38.33
2023-02-26T00:30:27.117Z,38.28
2023-02-26T00:32:55.757Z,38.07
2023-02-26T00:35:25.676Z,38.10
2023-02-26T00:38:00.545Z,38.36
2023-02-26T00:40:42.875Z,38.24
2023-02-26T00:43:14.345Z,38.22
2023-02-26T00:45:43.662Z,38.49
2023-02-26T00:48:22.485Z,38.22
2023-02-26T00:50:54.628Z,38.10
2023-02-26T00:53:24.066Z,38.31
2023-02-26T00:55:53.994Z,37.89
2023-02-26T00:58:22.633Z,38.44
2023-02-26T01:00:50.767Z,37.88
2023-02-26T01:03:19.508Z,37.97
2023-02-26T01:05:48.280Z,37.97
2023-02-26T01:08:18.713Z,37.83
2023-02-26T01:10:47.327Z,38.26
2023-02-26T01:13:17.218Z,37.93
2023-02-26T01:15:48.466Z,38.00
2023-02-26T01:18:20.069Z,38.45
2023-02-26T01:20:49.786Z,37.74
2023-02-26T01:23:19.317Z,37.84
2023-02-26T01:25:50.085Z,38.20
2023-02-26T01:28:20.451Z,38.07
2023-02-26T01:30:49.793Z,37.93
2023-02-26T01:33:20.871Z,37.74
2023-02-26T01:35:50.192Z,38.04
2023-02-26T01:38:22.305Z,37.68
2023-02-26T01:41:28.663Z,37.38
2023-02-26T01:44:22.144Z,37.93
2023-02-26T01:47:10.684Z,38.02
2023-02-26T01:49:39.466Z,38.04
2023-02-26T01:52:08.354Z,38.10
2023-02-26T01:54:37.290Z,37.42
2023-02-26T01:57:07.276Z,37.60
2023-02-26T01:59:38.765Z,37.23
2023-02-26T02:02:09.049Z,37.30
2023-02-26T02:04:37.811Z,37.41
2023-02-26T02:07:06.136Z,37.45
2023-02-26T02:09:34.882Z,37.31
2023-02-26T02:12:10.520Z,37.50
2023-02-26T02:14:45.215Z,37.03
2023-02-26T02:17:15.631Z,37.47
2023-02-26T02:20:12.413Z,36.96
2023-02-26T02:22:55.945Z,37.48
2023-02-26T02:26:01.060Z,37.00
2023-02-26T02:28:36.613Z,37.61
2023-02-26T02:31:08.351Z,37.25
2023-02-26T02:33:40.346Z,36.92
2023-02-26T02:36:10.692Z,36.91
2023-02-26T02:38:41.292Z,37.03
2023-02-26T02:41:12.729Z,37.36
2023-02-26T02:43:40.992Z,37.32
2023-02-26T02:46:12.731Z,37.09
2023-02-26T02:48:42.333Z,37.19
2023-02-26T02:51:13.492Z,37.22
2023-02-26T02:53:45.339Z,37.23
2023-02-26T02:56:25.844Z,36.93
2023-02-26T02:59:12.040Z,37.10
2023-02-26T03:01:41.937Z,36.72
2023-02-26T03:04:11.496Z,37.13
2023-02-26T03:06:39.875Z,37.21
2023-02-26T03:09:09.071Z,37.29
2023-02-26T03:11:37.314Z,36.95
2023-02-26T03:14:06.457Z,36.51
2023-02-26T03:16:58.444Z,37.15
2023-02-26T03:19:30.588Z,36.96
2023-02-26T03:22:04.240Z,36.71
2023-02-26T03:24:59.211Z,36.95
2023-02-26T03:27:30.313Z,36.92
2023-02-26T03:30:00.330Z,36.81
2023-02-26T03:32:31.542Z,36.52
2023-02-26T03:35:01.976Z,36.98
2023-02-26T03:37:33.476Z,36.48
2023-02-26T03:40:05.311Z,36.67
2023-02-26T03:42:37.493Z,36.53
2023-02-26T03:45:09.599Z,36.87
2023-02-26T03:47:40.284Z,37.13
2023-02-26T03:50:10.228Z,36.55
2023-02-26T03:52:49.968Z,36.79
2023-02-26T03:55:40.852Z,36.86
2023-02-26T03:58:28.439Z,36.80
2023-02-26T04:01:24.485Z,36.47
2023-02-26T04:03:56.891Z,36.53
2023-02-26T04:06:25.448Z,36.56
2023-02-26T04:08:53.728Z,36.92
2023-02-26T04:11:22.833Z,37.07
2023-02-26T04:13:51.170Z,36.27
2023-02-26T04:16:20.147Z,36.72
2023-02-26T04:18:48.394Z,36.61
2023-02-26T04:21:20.217Z,36.25
2023-02-26T04:23:49.172Z,36.57
2023-02-26T04:26:17.357Z,36.64
2023-02-26T04:28:47.090Z,36.92
2023-02-26T04:31:15.911Z,36.54
2023-02-26T04:33:44.312Z,36.26
2023-02-26T04:36:12.853Z,36.55
2023-02-26T04:38:42.379Z,36.94
2023-02-26T04:41:10.595Z,36.27
2023-02-26T04:43:39.120Z,36.93
2023-02-26T04:46:21.285Z,36.95
2023-02-26T04:48:49.610Z,36.46
2023-02-26T04:51:18.235Z,36.90
2023-02-26T04:53:48.231Z,36.94
2023-02-26T04:56:16.512Z,36.20
2023-02-26T04:58:46.040Z,36.56
2023-02-26T05:01:19.158Z,36.33
2023-02-26T05:03:47.479Z,36.37
2023-02-26T05:06:16.019Z,36.67
2023-02-26T05:08:44.398Z,36.40
2023-02-26T05:11:14.035Z,36.40
2023-02-26T05:13:42.346Z,36.14
2023-02-26T05:16:10.675Z,36.25
2023-02-26T05:18:39.048Z,36.72
2023-02-26T05:21:07.582Z,36.11
2023-02-26T05:23:35.933Z,36.58
2023-02-26T05:26:04.141Z,36.43
2023-02-26T05:28:36.665Z,36.33
2023-02-26T05:31:04.987Z,36.21
2023-02-26T05:33:33.079Z,36.46
2023-02-26T05:36:01.290Z,36.35
2023-02-26T05:38:29.438Z,36.75
2023-02-26T05:40:58.648Z,36.66
2023-02-26T05:43:27.125Z,36.45
2023-02-26T05:45:56.913Z,36.26
2023-02-26T05:48:25.150Z,36.27
2023-02-26T05:50:53.418Z,36.57
2023-02-26T05:53:21.786Z,36.32
2023-02-26T05:55:50.540Z,36.25
2023-02-26T05:58:18.762Z,36.38
2023-02-26T06:00:46.938Z,36.70
2023-02-26T06:03:16.665Z,36.40
2023-02-26T06:05:44.862Z,36.27
2023-02-26T06:08:15.679Z,36.72
2023-02-26T06:10:44.022Z,36.82
2023-02-26T06:13:12.300Z,36.55
2023-02-26T06:15:40.557Z,36.63
2023-02-26T06:18:09.005Z,36.70
2023-02-26T06:20:38.840Z,36.70
2023-02-26T06:23:07.019Z,36.33
2023-02-26T06:25:35.183Z,36.42
2023-02-26T06:28:03.362Z,36.09
2023-02-26T06:30:31.862Z,36.27
2023-02-26T06:33:00.081Z,36.78
2023-02-26T06:35:30.364Z,36.87
2023-02-26T06:38:00.106Z,36.54
2023-02-26T06:40:39.873Z,36.71
2023-02-26T06:43:08.202Z,36.53
2023-02-26T06:45:36.405Z,36.68
2023-02-26T06:48:04.773Z,36.89
2023-02-26T06:50:32.992Z,36.42
2023-02-26T06:53:02.650Z,36.66
2023-02-26T06:55:30.771Z,36.25
2023-02-26T06:57:59.008Z,36.78
2023-02-26T07:00:27.264Z,36.76
2023-02-26T07:02:55.515Z,36.02
2023-02-26T07:05:24.206Z,35.76
2023-02-26T07:07:52.404Z,36.68
2023-02-26T07:10:22.604Z,36.15
2023-02-26T07:12:50.786Z,36.07
2023-02-26T07:15:18.972Z,36.75
2023-02-26T07:17:47.144Z,36.74
2023-02-26T07:20:15.415Z,36.22
2023-02-26T07:22:44.046Z,36.53
2023-02-26T07:25:12.399Z,36.32
2023-02-26T07:27:43.801Z,36.80
2023-02-26T07:30:13.182Z,36.58
2023-02-26T07:32:41.356Z,36.66
2023-02-26T07:35:10.389Z,36.86
2023-02-26T07:37:39.469Z,36.65
2023-02-26T07:40:08.726Z,36.71
2023-02-26T07:42:36.887Z,36.93
2023-02-26T07:45:08.209Z,36.81
2023-02-26T07:47:36.536Z,36.19
2023-02-26T07:50:05.066Z,36.80
2023-02-26T07:52:33.203Z,36.75
2023-02-26T07:55:01.412Z,36.16
2023-02-26T07:57:29.533Z,36.26
2023-02-26T07:59:57.683Z,36.32
2023-02-26T08:02:27.340Z,36.66
2023-02-26T08:04:55.528Z,36.71
2023-02-26T08:07:23.673Z,36.56
2023-02-26T08:09:51.814Z,36.39
2023-02-26T08:12:20.050Z,36.57
2023-02-26T08:14:48.441Z,36.59
2023-02-26T08:17:16.652Z,36.51
2023-02-26T08:19:46.191Z,36.55
2023-02-26T08:22:14.296Z,36.38
2023-02-26T08:24:42.955Z,36.60
2023-02-26T08:27:12.685Z,36.32
2023-02-26T08:29:41.763Z,35.96
2023-02-26T08:32:10.552Z,35.92
2023-02-26T08:34:38.995Z,35.85
2023-02-26T08:37:11.740Z,35.88
2023-02-26T08:39:40.041Z,36.23
2023-02-26T08:42:08.541Z,36.28
2023-02-26T08:44:36.876Z,36.59
2023-02-26T08:47:05.197Z,35.81
2023-02-26T08:49:33.419Z,36.43
2023-02-26T08:52:01.820Z,35.75
2023-02-26T08:54:31.459Z,35.88
2023-02-26T08:57:00.058Z,36.15
2023-02-26T08:59:28.237Z,35.91
2023-02-26T09:01:56.530Z,36.08
2023-02-26T09:04:24.636Z,36.26
2023-02-26T09:06:52.866Z,35.88
2023-02-26T09:09:21.161Z,36.33
2023-02-26T09:11:50.830Z,36.10
2023-02-26T09:14:19.008Z,36.26
2023-02-26T09:16:48.909Z,35.84
2023-02-26T09:19:19.052Z,35.57
2023-02-26T09:21:47.161Z,35.93
2023-02-26T09:24:15.397Z,35.64
2023-02-26T09:26:43.797Z,35.98
2023-02-26T09:29:14.564Z,35.58
2023-02-26T09:31:42.825Z,35.67
2023-02-26T09:34:11.643Z,35.99
2023-02-26T09:36:39.923Z,36.17
2023-02-26T09:39:08.864Z,35.96
2023-02-26T09:41:39.668Z,36.11
2023-02-26T09:44:22.405Z,36.26
2023-02-26T09:46:55.262Z,35.75
2023-02-26T09:49:28.575Z,35.83
2023-02-26T09:51:58.539Z,36.27
2023-02-26T09:54:27.961Z,35.70
2023-02-26T09:56:58.424Z,35.56
2023-02-26T09:59:28.668Z,35.47
2023-02-26T10:01:59.829Z,35.81
2023-02-26T10:04:45.673Z,35.58
2023-02-26T10:07:18.219Z,36.11
2023-02-26T10:09:56.265Z,36.03
2023-02-26T10:12:26.114Z,35.88
2023-02-26T10:14:57.037Z,35.45
2023-02-26T10:17:30.165Z,36.01
2023-02-26T10:20:10.296Z,35.74
2023-02-26T10:22:42.077Z,35.90
2023-02-26T10:25:12.608Z,35.97
2023-02-26T10:27:50.351Z,35.23
2023-02-26T10:30:23.591Z,35.23
2023-02-26T10:32:56.819Z,35.54
2023-02-26T10:35:26.198Z,35.74
2023-02-26T10:37:56.504Z,35.25
2023-02-26T10:40:27.922Z,35.37
2023-02-26T10:42:58.282Z,35.74
2023-02-26T10:45:34.740Z,35.51
2023-02-26T10:48:22.232Z,35.61
2023-02-26T10:50:51.401Z,35.49
2023-02-26T10:53:19.550Z,35.86
2023-02-26T10:55:48.582Z,35.32
2023-02-26T10:58:18.360Z,35.63
2023-02-26T11:00:50.174Z,35.81
2023-02-26T11:03:20.615Z,35.39
2023-02-26T11:05:49.379Z,35.68
2023-02-26T11:08:19.489Z,35.46
2023-02-26T11:10:50.147Z,35.11
2023-02-26T11:13:18.366Z,35.72
2023-02-26T11:15:50.015Z,35.12
2023-02-26T11:18:20.823Z,34.71
2023-02-26T11:20:49.091Z,35.21
2023-02-26T11:23:19.944Z,35.11
2023-02-26T11:25:48.200Z,34.89
2023-02-26T11:28:22.027Z,34.83
2023-02-26T11:30:54.500Z,34.76
2023-02-26T11:33:29.031Z,34.88
2023-02-26T11:35:58.128Z,34.56
2023-02-26T11:38:27.243Z,35.07
2023-02-26T11:40:57.200Z,34.68
2023-02-26T11:43:28.038Z,34.44
2023-02-26T11:46:00.868Z,34.55
2023-02-26T11:48:30.685Z,35.09
2023-02-26T11:51:00.354Z,34.64
2023-02-26T11:53:32.482Z,34.57
2023-02-26T11:56:03.822Z,34.39
2023-02-26T11:58:36.425Z,34.72
2023-02-26T12:01:06.432Z,34.52
2023-02-26T12:03:35.318Z,34.48
2023-02-26T12:06:04.560Z,34.35
2023-02-26T12:08:38.374Z,34.00
2023-02-26T12:11:28.413Z,34.04
2023-02-26T12:14:03.320Z,34.69
2023-02-26T12:16:36.619Z,34.26
2023-02-26T12:19:07.524Z,34.37
2023-02-26T12:21:51.848Z,34.23
2023-02-26T12:24:59.135Z,34.04
2023-02-26T12:27:32.041Z,33.98
2023-02-26T12:30:23.330Z,34.26
2023-02-26T12:33:12.853Z,34.01
2023-02-26T12:35:45.344Z,34.02
2023-02-26T12:38:21.459Z,34.05
2023-02-26T12:41:08.309Z,33.79
2023-02-26T12:43:40.425Z,33.95
2023-02-26T12:46:13.227Z,34.05
2023-02-26T12:49:07.725Z,34.08
2023-02-26T12:51:43.879Z,34.06
2023-02-26T12:54:23.859Z,33.78
2023-02-26T12:57:40.866Z,34.30
2023-02-26T13:00:18.261Z,33.77
2023-02-26T13:03:34.438Z,34.32
2023-02-26T13:06:24.756Z,33.81
2023-02-26T13:08:56.357Z,34.18
2023-02-26T13:11:29.959Z,34.12
2023-02-26T13:14:05.997Z,34.20
2023-02-26T13:16:40.033Z,34.08
2023-02-26T13:19:16.024Z,34.27
2023-02-26T13:21:48.287Z,34.37
2023-02-26T13:24:17.852Z,34.13
2023-02-26T13:26:46.145Z,33.96
2023-02-26T13:29:16.865Z,34.23
2023-02-26T13:31:46.343Z,33.59
2023-02-26T13:34:17.223Z,34.45
2023-02-26T13:36:46.909Z,34.02
2023-02-26T13:39:36.256Z,34.59
2023-02-26T13:42:08.053Z,33.78
2023-02-26T13:44:40.049Z,34.26
2023-02-26T13:47:20.924Z,34.24
2023-02-26T13:49:54.786Z,33.70
2023-02-26T13:52:29.076Z,34.11
2023-02-26T13:54:59.358Z,34.62
2023-02-26T13:57:36.139Z,34.51
2023-02-26T14:00:13.320Z,34.23
2023-02-26T14:02:53.294Z,34.20
2023-02-26T14:05:36.072Z,34.73
2023-02-26T14:08:39.382Z,34.23
2023-02-26T14:11:48.553Z,34.75
2023-02-26T14:14:38.213Z,34.60
2023-02-26T14:17:31.861Z,34.30
2023-02-26T14:20:25.257Z,34.46
2023-02-26T14:22:55.698Z,34.36
2023-02-26T14:25:33.145Z,34.80
2023-02-26T14:28:36.037Z,34.61
2023-02-26T14:31:19.865Z,34.64
2023-02-26T14:33:50.465Z,34.54
2023-02-26T14:36:21.748Z,34.58
2023-02-26T14:38:50.305Z,34.49
2023-02-26T14:41:27.386Z,34.56
2023-02-26T14:44:00.624Z,34.88
2023-02-26T14:46:29.059Z,34.80
2023-02-26T14:48:57.763Z,34.45
2023-02-26T14:51:31.219Z,34.96
2023-02-26T14:54:09.795Z,34.05
2023-02-26T14:56:53.560Z,34.11
2023-02-26T14:59:30.140Z,34.14
2023-02-26T15:02:03.318Z,34.09
2023-02-26T15:04:53.348Z,34.29
2023-02-26T15:07:29.484Z,34.19
2023-02-26T15:10:09.813Z,34.70
2023-02-26T15:12:45.401Z,34.57
2023-02-26T15:15:30.476Z,34.37
2023-02-26T15:18:17.652Z,34.90
2023-02-26T15:20:50.170Z,34.62
2023-02-26T15:23:38.278Z,34.72
2023-02-26T15:26:07.000Z,34.60
2023-02-26T15:28:38.109Z,34.62
2023-02-26T15:31:06.916Z,34.66
2023-02-26T15:33:35.473Z,34.63
2023-02-26T15:36:07.659Z,34.56
2023-02-26T15:38:41.753Z,34.36
2023-02-26T15:41:09.874Z,34.28
2023-02-26T15:43:39.521Z,33.97
2023-02-26T15:46:08.098Z,34.36
2023-02-26T15:48:38.651Z,34.42
2023-02-26T15:51:07.968Z,34.14
2023-02-26T15:53:38.005Z,34.55
2023-02-26T15:56:07.447Z,34.57
2023-02-26T15:58:37.862Z,33.84
2023-02-26T16:01:07.536Z,34.21
2023-02-26T16:03:38.725Z,34.51
2023-02-26T16:06:08.837Z,34.49
2023-02-26T16:08:37.031Z,34.55
2023-02-26T16:11:06.257Z,34.53
2023-02-26T16:13:37.820Z,34.34
2023-02-26T16:16:10.067Z,33.74
2023-02-26T16:18:38.418Z,33.93
2023-02-26T16:21:07.711Z,34.02
2023-02-26T16:23:42.051Z,33.88
2023-02-26T16:26:10.856Z,33.95
2023-02-26T16:28:45.597Z,34.09
2023-02-26T16:31:19.346Z,33.93
2023-02-26T16:33:58.757Z,34.00
2023-02-26T16:36:28.856Z,34.10
2023-02-26T16:39:11.846Z,33.64
2023-02-26T16:41:40.955Z,33.65
2023-02-26T16:44:46.052Z,34.14
2023-02-26T16:47:15.946Z,33.87
2023-02-26T16:49:44.110Z,33.66
2023-02-26T16:52:17.205Z,33.35
2023-02-26T16:54:45.716Z,33.67
2023-02-26T16:57:16.185Z,33.40
2023-02-26T16:59:44.474Z,33.51
2023-02-26T17:02:15.638Z,33.72
2023-02-26T17:04:43.784Z,33.94
2023-02-26T17:07:18.795Z,33.56
2023-02-26T17:09:49.480Z,33.77
2023-02-26T17:12:18.503Z,33.77
2023-02-26T17:14:48.058Z,33.48
2023-02-26T17:17:18.317Z,33.51
2023-02-26T17:19:46.476Z,33.48
2023-02-26T17:22:18.749Z,33.51
2023-02-26T17:24:47.598Z,33.60
2023-02-26T17:27:18.210Z,33.60
2023-02-26T17:29:47.270Z,33.34
2023-02-26T17:32:21.856Z,33.44
2023-02-26T17:34:50.264Z,32.95
2023-02-26T17:37:18.396Z,33.59
2023-02-26T17:39:46.640Z,33.05
2023-02-26T17:42:16.564Z,32.73
2023-02-26T17:44:44.981Z,32.98
2023-02-26T17:47:14.537Z,33.11
2023-02-26T17:49:44.271Z,33.04
2023-02-26T17:52:12.494Z,32.96
2023-02-26T17:54:40.753Z,32.77
2023-02-26T17:57:09.381Z,32.60
2023-02-26T17:59:37.727Z,32.42
2023-02-26T18:02:13.231Z,32.95
2023-02-26T18:04:41.718Z,32.51
2023-02-26T18:07:15.968Z,32.33
2023-02-26T18:09:44.538Z,32.78
2023-02-26T18:12:14.023Z,32.76
2023-02-26T18:14:42.260Z,32.63
2023-02-26T18:17:14.672Z,32.62
2023-02-26T18:19:43.044Z,32.42
2023-02-26T18:22:14.749Z,32.18
2023-02-26T18:24:43.092Z,32.24
2023-02-26T18:27:14.360Z,32.55
2023-02-26T18:29:42.581Z,32.60
2023-02-26T18:32:13.669Z,32.15
2023-02-26T18:34:42.045Z,32.17
2023-02-26T18:37:13.357Z,32.17
2023-02-26T18:39:41.669Z,32.26
2023-02-26T18:42:13.009Z,32.25
2023-02-26T18:44:41.239Z,31.96
2023-02-26T18:47:10.484Z,32.32
2023-02-26T18:49:38.657Z,32.12
2023-02-26T18:52:06.748Z,32.18
2023-02-26T18:54:37.048Z,32.30
2023-02-26T18:57:05.413Z,32.18
2023-02-26T18:59:34.429Z,32.31
2023-02-26T19:02:03.247Z,32.11
2023-02-26T19:04:31.738Z,32.50
2023-02-26T19:06:59.949Z,32.02
2023-02-26T19:09:28.907Z,32.45
2023-02-26T19:11:58.550Z,32.00
2023-02-26T19:14:26.740Z,32.61
2023-02-26T19:16:54.969Z,32.03
2023-02-26T19:19:23.148Z,32.34
2023-02-26T19:21:51.404Z,32.79
2023-02-26T19:24:19.664Z,32.61
2023-02-26T19:26:47.796Z,32.45
2023-02-26T19:29:18.321Z,32.38
2023-02-26T19:31:46.777Z,33.03
2023-02-26T19:34:15.148Z,32.80
2023-02-26T19:36:48.509Z,33.01
2023-02-26T19:39:17.318Z,33.64
2023-02-26T19:41:45.844Z,33.52
2023-02-26T19:44:13.955Z,33.50
2023-02-26T19:46:43.617Z,33.67
2023-02-26T19:49:11.917Z,34.10
2023-02-26T19:51:40.011Z,34.10
2023-02-26T19:54:08.088Z,33.79
2023-02-26T19:56:36.479Z,34.48
2023-02-26T19:59:04.751Z,34.47
2023-02-26T20:01:33.042Z,34.60
2023-02-26T20:04:02.763Z,34.20
2023-02-26T20:06:30.884Z,34.62
2023-02-26T20:08:59.211Z,34.53
2023-02-26T20:11:27.607Z,34.78
2023-02-26T20:13:55.928Z,34.66
2023-02-26T20:16:24.033Z,34.90
2023-02-26T20:18:52.152Z,34.64
2023-02-26T20:21:22.325Z,34.80
2023-02-26T20:23:50.494Z,35.01
2023-02-26T20:26:18.712Z,34.86
2023-02-26T20:28:46.860Z,34.50
2023-02-26T20:31:15.095Z,34.75
2023-02-26T20:33:44.564Z,34.97
2023-02-26T20:36:12.960Z,34.87
2023-02-26T20:38:42.955Z,34.94
2023-02-26T20:41:11.158Z,34.81
2023-02-26T20:43:39.359Z,34.84
2023-02-26T20:46:07.578Z,34.96
2023-02-26T20:48:40.403Z,35.41
2023-02-26T20:51:10.044Z,34.71
2023-02-26T20:53:38.220Z,34.93
2023-02-26T20:56:09.088Z,34.77
2023-02-26T20:58:38.409Z,35.06
2023-02-26T21:01:06.634Z,35.04
2023-02-26T21:03:34.772Z,35.06
2023-02-26T21:06:02.876Z,34.91
2023-02-26T21:08:31.048Z,35.06
2023-02-26T21:10:59.216Z,34.77
2023-02-26T21:13:28.644Z,35.38
2023-02-26T21:15:57.414Z,35.34
2023-02-26T21:18:25.544Z,34.73
2023-02-26T21:20:53.694Z,35.10
2023-02-26T21:23:21.914Z,35.39
2023-02-26T21:25:50.081Z,35.23
2023-02-26T21:28:18.094Z,34.84
2023-02-26T21:30:47.657Z,35.20
2023-02-26T21:33:15.844Z,35.15
2023-02-26T21:35:44.018Z,35.00
2023-02-26T21:38:12.437Z,35.11
2023-02-26T21:40:40.587Z,35.11
2023-02-26T21:43:10.673Z,35.46
2023-02-26T21:45:38.862Z,35.29
2023-02-26T21:48:08.493Z,35.08
2023-02-26T21:50:36.689Z,35.29
2023-02-26T21:53:04.883Z,34.98
2023-02-26T21:55:33.095Z,34.78
2023-02-26T21:58:02.137Z,34.93
2023-02-26T22:00:30.341Z,35.16
2023-02-26T22:02:58.473Z,34.84
2023-02-26T22:05:28.052Z,34.92
2023-02-26T22:07:56.356Z,35.03
2023-02-26T22:10:24.531Z,34.96
2023-02-26T22:12:52.726Z,35.38
2023-02-26T22:15:21.334Z,35.09
2023-02-26T22:17:49.485Z,34.97
2023-02-26T22:20:17.888Z,34.91
2023-02-26T22:22:47.465Z,35.20
2023-02-26T22:25:15.583Z,34.72
2023-02-26T22:27:43.747Z,35.31
2023-02-26T22:30:13.112Z,34.92
2023-02-26T22:32:41.379Z,35.16
2023-02-26T22:35:11.082Z,34.60
2023-02-26T22:37:39.245Z,34.99
2023-02-26T22:40:10.020Z,34.97
2023-02-26T22:42:38.292Z,34.90
2023-02-26T22:45:07.411Z,34.73
2023-02-26T22:47:35.676Z,34.59
2023-02-26T22:50:03.956Z,34.57
2023-02-26T22:52:32.198Z,34.93
2023-02-26T22:55:00.386Z,34.90
2023-02-26T22:57:30.041Z,34.98
2023-02-26T22:59:58.415Z,34.79
2023-02-26T23:02:26.711Z,34.52
2023-02-26T23:04:55.043Z,34.94
2023-02-26T23:07:23.569Z,34.59
2023-02-26T23:09:52.559Z,34.62
2023-02-26T23:12:20.663Z,34.64
2023-02-26T23:14:50.255Z,34.98
2023-02-26T23:17:18.434Z,34.97
2023-02-26T23:19:46.688Z,34.74
2023-02-26T23:22:14.796Z,34.76
2023-02-26T23:24:43.055Z,35.01
2023-02-26T23:27:11.540Z,35.07
2023-02-26T23:29:39.735Z,34.96
2023-02-26T23:32:09.352Z,34.73
2023-02-26T23:34:37.566Z,34.48
2023-02-26T23:37:05.631Z,34.94
2023-02-26T23:39:33.872Z,34.77
2023-02-26T23:42:02.131Z,34.91
2023-02-26T23:44:30.522Z,34.73
2023-02-26T23:46:58.595Z,34.39
2023-02-26T23:49:28.203Z,34.52
2023-02-26T23:51:56.411Z,34.30
2023-02-26T23:54:24.696Z,34.44
2023-02-26T23:56:52.755Z,34.86
2023-02-26T23:59:20.797Z,34.67
